Time;durP1;ratioP1;P1;durP2;ratioP2;P2;SDS_P1;SDS_P2;PMS_P1;PMS_P2;Temp;Humidity;BMP_temperature;BMP_pressure;BME280_temperature;BME280_humidity;BME280_pressure;Samples;Min_cycle;Max_cycle;Signal;HPM_P1;HPM_P2
2022/10/28 00:01:18;;;;;;;;;13.00;10.67;;;;;19.06;66.49;101289.03;4977378;28;45439;-72
2022/10/28 00:03:45;;;;;;;;;9.00;8.67;;;;;19.05;66.44;101279.28;4984440;28;47473;-73
2022/10/28 00:06:17;;;;;;;;;12.67;11.33;;;;;18.99;66.59;101279.16;4992428;28;46416;-71
2022/10/28 00:08:43;;;;;;;;;9.67;8.67;;;;;19.06;66.50;101286.34;4977279;28;45488;-72
2022/10/28 00:11:16;;;;;;;;;13.33;12.33;;;;;19.08;66.39;101278.06;4978727;28;45184;-71
2022/10/28 00:13:42;;;;;;;;;12.33;11.00;;;;;19.00;66.35;101270.91;4977406;28;46617;-72
2022/10/28 00:16:16;;;;;;;;;11.33;11.33;;;;;19.06;66.54;101283.66;4977137;28;45354;-71
2022/10/28 00:18:42;;;;;;;;;12.33;8.67;;;;;18.42;66.57;101180.97;4977257;28;45434;-72
2022/10/28 00:21:15;;;;;;;;;10.67;10.33;;;;;18.39;66.63;101178.63;4977397;28;45634;-72
2022/10/28 00:23:41;;;;;;;;;8.00;8.00;;;;;18.78;66.59;101245.72;4977183;28;45918;-73
2022/10/28 00:26:10;;;;;;;;;11.67;10.67;;;;;18.30;66.42;101171.66;4977382;28;45529;-74
2022/10/28 00:28:41;;;;;;;;;8.67;8.67;;;;;18.92;66.85;101289.03;4977698;28;45481;-70
2022/10/28 00:31:08;;;;;;;;;9.67;7.33;;;;;18.95;66.71;101294.88;4977849;28;45495;-71
2022/10/28 00:33:33;;;;;;;;;12.67;11.00;;;;;18.77;66.84;101264.75;4976462;28;46963;-72
2022/10/28 00:36:14;;;;;;;;;8.67;8.67;;;;;18.92;66.63;101278.25;4976915;28;45218;-69
2022/10/28 00:38:41;;;;;;;;;9.00;8.33;;;;;18.92;66.57;101289.84;4976844;28;45529;-71
2022/10/28 00:41:08;;;;;;;;;11.67;10.33;;;;;18.84;66.79;101271.09;4976975;28;45496;-71
2022/10/28 00:43:36;;;;;;;;;9.67;8.00;;;;;18.81;66.94;101272.28;4991607;28;48527;-74
2022/10/28 00:46:05;;;;;;;;;9.00;8.67;;;;;18.88;66.65;101288.56;4977901;28;45287;-71
2022/10/28 00:48:30;;;;;;;;;9.67;9.67;;;;;18.63;66.47;101244.06;4976092;28;45437;-72
2022/10/28 00:50:56;;;;;;;;;8.00;6.33;;;;;18.63;66.77;101236.81;4978344;28;45378;-70
2022/10/28 00:53:27;;;;;;;;;14.67;11.00;;;;;18.86;66.93;101284.38;4980131;28;46605;-71
2022/10/28 00:55:54;;;;;;;;;13.33;10.00;;;;;18.82;67.01;101273.13;4979690;28;45590;-72
2022/10/28 00:58:22;;;;;;;;;14.00;11.00;;;;;18.80;67.05;101275.16;4980321;28;45412;-69
2022/10/28 01:00:47;;;;;;;;;10.67;9.00;;;;;18.78;67.17;101264.56;4980211;28;45465;-70
2022/10/28 01:03:13;;;;;;;;;11.33;10.33;;;;;18.77;66.99;101268.28;4994804;28;48015;-72
2022/10/28 01:05:41;;;;;;;;;4.67;4.67;;;;;18.73;67.17;101258.91;4979961;28;45386;-71
2022/10/28 01:08:07;;;;;;;;;14.33;11.00;;;;;18.73;67.18;101261.59;4980131;28;45353;-71
2022/10/28 01:11:00;;;;;;;;;10.33;8.67;;;;;18.72;67.33;101269.88;4982292;28;45706;-71
2022/10/28 01:13:37;;;;;;;;;9.33;9.33;;;;;18.40;67.06;101214.44;4974980;28;46339;-73
2022/10/28 01:16:24;;;;;;;;;7.67;7.67;;;;;18.44;67.37;101227.38;4979597;28;45443;-72
2022/10/28 01:19:28;;;;;;;;;11.67;10.33;;;;;18.65;67.49;101266.25;4979848;28;45500;-69
2022/10/28 01:22:18;;;;;;;;;8.33;6.67;;;;;17.97;67.43;101154.16;4971305;28;45691;-71
2022/10/28 01:24:52;;;;;;;;;8.67;7.67;;;;;18.63;67.27;101257.53;4979466;28;46344;-70
2022/10/28 01:27:42;;;;;;;;;8.67;7.33;;;;;18.63;67.32;101258.38;4972909;28;45495;-72
2022/10/28 01:30:15;;;;;;;;;9.33;9.33;;;;;18.62;67.53;101266.56;4979580;28;45440;-72
2022/10/28 01:32:53;;;;;;;;;12.67;10.33;;;;;18.41;67.33;101235.81;4979618;28;45457;-72
2022/10/28 01:35:40;;;;;;;;;7.00;7.00;;;;;18.61;67.12;101257.66;4979290;28;49472;-70
2022/10/28 01:38:24;;;;;;;;;8.00;6.33;;;;;18.54;67.31;101246.78;4977878;28;46326;-72
2022/10/28 01:41:01;;;;;;;;;9.67;8.00;;;;;18.62;67.28;101255.78;4979538;28;45424;-72
2022/10/28 01:43:37;;;;;;;;;9.00;8.33;;;;;18.61;67.15;101249.56;4980037;28;45342;-71
2022/10/28 01:46:18;;;;;;;;;7.00;7.00;;;;;18.63;67.08;101247.59;4979114;28;45820;-70
2022/10/28 01:49:12;;;;;;;;;10.67;9.33;;;;;18.58;67.40;101243.72;4994551;28;46143;-70
2022/10/28 01:51:45;;;;;;;;;8.50;8.50;;;;;18.45;67.25;101223.66;4979302;28;45204;-72
2022/10/28 01:54:16;;;;;;;;;7.33;7.33;;;;;18.47;67.53;101231.56;4979340;28;45203;-70
2022/10/28 01:56:44;;;;;;;;;12.00;7.67;;;;;18.44;67.11;101230.06;4993969;28;46482;-71
2022/10/28 01:59:15;;;;;;;;;11.33;10.33;;;;;18.30;67.36;101203.13;4978928;28;45585;-71
2022/10/28 02:01:40;;;;;;;;;14.33;11.00;;;;;18.46;67.80;101230.72;4979061;28;45488;-69
2022/10/28 02:04:06;;;;;;;;;10.67;9.00;;;;;18.31;67.74;101205.63;4978534;28;45403;-71
2022/10/28 02:06:33;;;;;;;;;9.67;8.67;;;;;18.05;67.52;101162.16;4979076;28;45729;-72
2022/10/28 02:09:01;;;;;;;;;8.67;7.33;;;;;18.50;67.53;101242.78;4978674;28;45328;-72
2022/10/28 02:11:42;;;;;;;;;7.33;7.33;;;;;18.47;67.65;101245.03;4977381;28;45429;-72
2022/10/28 02:14:40;;;;;;;;;10.67;10.00;;;;;18.44;67.71;101234.63;4994083;28;45568;-71
2022/10/28 02:17:40;;;;;;;;;10.33;7.67;;;;;18.44;67.78;101238.16;4978549;28;46196;-72
2022/10/28 02:20:16;;;;;;;;;9.67;8.67;;;;;18.44;67.74;101238.16;4965599;28;45466;-71
2022/10/28 02:22:49;;;;;;;;;12.33;9.33;;;;;18.41;67.86;101245.72;4979062;28;45402;-71
2022/10/28 02:25:22;;;;;;;;;9.33;8.33;;;;;18.34;67.66;101223.28;4978717;28;45410;-70
2022/10/28 02:27:55;;;;;;;;;8.00;8.00;;;;;18.37;67.84;101220.22;4977149;28;48438;-72
2022/10/28 02:30:23;;;;;;;;;12.33;9.67;;;;;18.37;67.96;101225.59;4978359;28;45571;-69
2022/10/28 02:32:55;;;;;;;;;11.33;8.67;;;;;18.37;67.76;101237.19;4978556;28;45480;-72
2022/10/28 02:35:40;;;;;;;;;6.33;6.33;;;;;18.09;68.11;101188.50;4978661;28;45430;-71
2022/10/28 02:38:13;;;;;;;;;10.67;9.67;;;;;17.87;67.74;101151.72;4978311;28;45431;-72
2022/10/28 02:40:40;;;;;;;;;10.67;9.00;;;;;18.26;67.87;101226.88;4971549;28;45356;-70
2022/10/28 02:43:09;;;;;;;;;9.00;7.33;;;;;18.02;67.82;101181.34;4978769;28;45480;-71
2022/10/28 02:45:39;;;;;;;;;7.00;7.00;;;;;18.18;68.22;101208.09;4971248;28;45328;-71
2022/10/28 02:48:32;;;;;;;;;8.67;8.33;;;;;18.29;68.00;101220.28;4978283;28;45303;-70
2022/10/28 02:51:20;;;;;;;;;9.67;9.00;;;;;18.28;68.10;101226.69;4973675;28;45335;-71
2022/10/28 02:53:59;;;;;;;;;5.00;5.00;;;;;18.26;68.13;101232.28;4973718;28;45231;-72
2022/10/28 02:56:27;;;;;;;;;9.67;9.67;;;;;18.18;67.87;101218.88;4979684;28;45330;-72
2022/10/28 02:58:53;;;;;;;;;6.00;6.00;;;;;18.23;68.34;101224.56;4978467;28;46206;-70
2022/10/28 03:01:18;;;;;;;;;7.67;6.33;;;;;18.15;68.21;101216.53;4977937;28;45250;-70
2022/10/28 03:03:44;;;;;;;;;8.33;8.00;;;;;18.05;68.24;101199.84;4978309;28;45271;-71
2022/10/28 03:06:09;;;;;;;;;13.67;12.33;;;;;17.85;68.13;101178.81;4978167;28;45218;-71
2022/10/28 03:08:34;;;;;;;;;9.67;8.00;;;;;18.02;68.40;101200.16;4977851;28;45903;-71
2022/10/28 03:11:00;;;;;;;;;7.67;6.33;;;;;18.17;68.45;101219.88;4978126;28;45276;-70
2022/10/28 03:13:25;;;;;;;;;9.33;7.00;;;;;18.14;68.58;101215.72;4977102;28;55013;-72
2022/10/28 03:15:50;;;;;;;;;8.67;6.00;;;;;18.13;68.53;101197.91;4977456;28;45416;-71
2022/10/28 03:18:16;;;;;;;;;10.67;6.67;;;;;18.06;68.22;101193.44;4993243;28;47445;-72
2022/10/28 03:20:41;;;;;;;;;7.00;6.67;;;;;17.55;68.09;101107.91;4978215;28;45243;-72
2022/10/28 03:23:06;;;;;;;;;11.33;7.00;;;;;18.11;68.32;101193.72;4978965;28;45449;-70
2022/10/28 03:25:32;;;;;;;;;10.33;9.67;;;;;17.94;68.40;101177.72;4978892;28;45519;-71
2022/10/28 03:27:57;;;;;;;;;10.33;7.00;;;;;18.10;68.37;101195.56;4977837;28;46647;-71
2022/10/28 03:30:22;;;;;;;;;7.67;7.00;;;;;18.10;68.25;101197.44;4977742;28;45440;-72
2022/10/28 03:32:48;;;;;;;;;9.00;7.33;;;;;17.91;68.30;101169.16;4977894;28;45879;-70
2022/10/28 03:35:13;;;;;;;;;7.67;7.00;;;;;18.05;68.07;101192.59;4978059;28;45417;-72
2022/10/28 03:37:42;;;;;;;;;7.00;7.00;;;;;17.97;67.94;101191.81;4977702;28;46444;-71
2022/10/28 03:40:09;;;;;;;;;5.67;5.00;;;;;18.04;68.46;101203.53;4977751;28;45310;-72
2022/10/28 03:42:34;;;;;;;;;8.00;6.00;;;;;18.00;68.56;101199.53;4992567;28;45457;-69
2022/10/28 03:45:00;;;;;;;;;8.00;7.00;;;;;17.85;68.49;101164.53;4978135;28;45598;-71
2022/10/28 03:47:25;;;;;;;;;10.33;8.67;;;;;17.98;68.58;101191.63;4977405;28;45524;-70
2022/10/28 03:49:50;;;;;;;;;7.67;7.00;;;;;17.98;68.60;101182.72;4993362;28;45317;-70
2022/10/28 03:52:16;;;;;;;;;8.00;8.00;;;;;17.97;68.35;101181.06;4977386;28;54118;-71
2022/10/28 03:54:41;;;;;;;;;6.67;6.67;;;;;17.28;68.36;101082.44;4978666;28;45294;-72
2022/10/28 03:57:06;;;;;;;;;7.00;7.00;;;;;17.63;68.42;101136.59;4978585;28;45519;-70
2022/10/28 03:59:32;;;;;;;;;6.00;6.00;;;;;17.80;68.61;101164.22;4977451;28;45243;-71
2022/10/28 04:01:57;;;;;;;;;7.00;5.50;;;;;17.94;68.17;101183.09;4977775;28;45191;-71
2022/10/28 04:04:22;;;;;;;;;6.67;6.00;;;;;17.25;68.23;101074.75;4977097;28;45318;-72
2022/10/28 04:06:48;;;;;;;;;7.67;7.67;;;;;17.92;68.57;101195.88;4976723;28;45456;-72
2022/10/28 04:09:13;;;;;;;;;10.00;7.00;;;;;17.62;68.52;101134.94;4977509;28;45342;-71
2022/10/28 04:11:38;;;;;;;;;7.00;6.00;;;;;17.90;68.30;101191.72;4977598;28;45337;-73
2022/10/28 04:14:04;;;;;;;;;7.00;6.00;;;;;17.74;68.08;101156.88;4977733;28;47031;-70
2022/10/28 04:16:29;;;;;;;;;12.00;9.00;;;;;17.68;68.14;101146.84;4976322;28;65367;-71
2022/10/28 04:18:54;;;;;;;;;6.67;5.33;;;;;17.54;68.34;101132.28;4991898;28;45381;-69
2022/10/28 04:21:20;;;;;;;;;7.00;5.33;;;;;17.89;67.86;101180.13;4975489;28;45352;-71
2022/10/28 04:23:45;;;;;;;;;9.67;6.33;;;;;17.87;68.50;101182.16;4991942;28;45562;-72
2022/10/28 04:26:10;;;;;;;;;8.67;5.67;;;;;17.85;68.24;101172.59;4991604;28;48446;-74
2022/10/28 04:28:36;;;;;;;;;6.00;6.00;;;;;17.79;68.17;101179.50;4975290;28;45366;-70
2022/10/28 04:31:01;;;;;;;;;9.33;7.67;;;;;17.87;68.04;101187.53;4991626;28;45450;-72
2022/10/28 04:33:27;;;;;;;;;11.00;7.00;;;;;17.39;68.20;101110.72;4977350;28;45521;-71
2022/10/28 04:35:53;;;;;;;;;7.33;6.00;;;;;17.65;67.76;101145.34;4976438;28;46243;-72
2022/10/28 04:38:18;;;;;;;;;8.33;6.00;;;;;17.05;67.80;101052.06;4976379;28;45441;-70
2022/10/28 04:40:47;;;;;;;;;9.00;6.00;;;;;17.25;67.96;101080.13;4976967;28;45335;-69
2022/10/28 04:43:12;;;;;;;;;9.00;7.33;;;;;17.29;67.57;101085.97;4977423;28;45804;-71
2022/10/28 04:45:38;;;;;;;;;6.00;4.67;;;;;17.88;67.51;101178.44;4991610;28;46684;-70
2022/10/28 04:48:03;;;;;;;;;8.67;6.67;;;;;17.57;67.87;101131.94;4976622;28;45492;-70
2022/10/28 04:50:29;;;;;;;;;7.67;7.67;;;;;17.87;67.66;101182.16;4976754;28;45305;-70
2022/10/28 04:52:54;;;;;;;;;7.00;5.00;;;;;17.85;67.73;101170.75;4976981;28;45336;-70
2022/10/28 04:55:20;;;;;;;;;8.67;7.00;;;;;17.64;67.59;101149.03;4991360;28;45940;-70
2022/10/28 04:58:11;;;;;;;;;7.33;5.67;;;;;17.87;67.59;101178.63;4991084;28;45299;-70
2022/10/28 05:00:37;;;;;;;;;10.00;6.00;;;;;17.88;67.51;101178.44;4968614;28;45639;-71
2022/10/28 05:03:03;;;;;;;;;8.00;7.33;;;;;17.85;67.52;101178.81;4976448;28;45212;-71
2022/10/28 05:05:29;;;;;;;;;11.33;5.00;;;;;17.68;67.58;101153.06;4991046;28;47152;-69
2022/10/28 05:07:54;;;;;;;;;6.00;5.00;;;;;17.17;67.31;101057.81;4974816;28;45377;-71
2022/10/28 05:10:19;;;;;;;;;7.00;7.00;;;;;17.57;66.73;101118.50;4976400;28;51851;-72
2022/10/28 05:12:45;;;;;;;;;10.00;8.67;;;;;17.09;67.55;101042.59;4976145;28;45427;-72
2022/10/28 05:15:12;;;;;;;;;9.00;6.67;;;;;17.87;67.36;101174.09;4976617;28;46702;-70
2022/10/28 05:17:44;;;;;;;;;8.67;7.00;;;;;17.87;67.11;101168.69;4976039;28;45513;-70
2022/10/28 05:20:10;;;;;;;;;6.67;6.00;;;;;17.81;66.97;101161.34;4976377;28;45306;-71
2022/10/28 05:22:36;;;;;;;;;5.00;5.00;;;;;17.70;67.31;101142.97;4975052;28;45545;-72
2022/10/28 05:25:02;;;;;;;;;9.67;8.00;;;;;17.83;67.03;101180.84;4975857;28;45955;-71
2022/10/28 05:27:28;;;;;;;;;10.67;7.67;;;;;17.67;66.86;101142.47;4976030;28;45379;-71
2022/10/28 05:29:53;;;;;;;;;7.67;6.00;;;;;17.85;67.00;101176.13;4975912;28;45294;-71
2022/10/28 05:32:18;;;;;;;;;7.00;6.67;;;;;17.42;66.68;101099.66;4975273;28;45580;-70
2022/10/28 05:34:44;;;;;;;;;8.33;7.00;;;;;17.62;66.83;101143.00;4975732;28;58147;-70
2022/10/28 05:37:10;;;;;;;;;6.33;6.00;;;;;17.17;66.68;101069.41;4975997;28;46887;-72
2022/10/28 05:39:35;;;;;;;;;7.00;5.00;;;;;15.35;66.74;100756.88;4979580;28;45322;-72
2022/10/28 05:42:00;;;;;;;;;8.33;7.67;;;;;17.55;66.86;101133.97;4994393;28;45398;-71
2022/10/28 05:44:26;;;;;;;;;7.67;6.33;;;;;17.81;66.86;101171.25;4978944;28;46287;-72
2022/10/28 05:46:52;;;;;;;;;6.67;6.00;;;;;17.82;66.96;101172.94;4979305;28;45199;-71
2022/10/28 05:49:19;;;;;;;;;7.33;7.33;;;;;17.54;66.72;101127.75;4978294;28;45533;-71
2022/10/28 05:51:45;;;;;;;;;6.00;6.00;;;;;17.06;66.89;101037.59;4978487;28;45641;-70
2022/10/28 05:54:11;;;;;;;;;7.33;5.67;;;;;17.54;66.75;101138.50;4977469;28;47793;-69
2022/10/28 05:56:36;;;;;;;;;8.33;6.33;;;;;17.74;67.01;101173.00;4978850;28;45314;-72
2022/10/28 05:59:02;;;;;;;;;10.00;8.33;;;;;17.47;66.96;101136.72;4979052;28;45227;-71
2022/10/28 06:01:27;;;;;;;;;7.67;7.67;;;;;17.75;66.88;101174.69;4980037;28;45399;-70
2022/10/28 06:03:53;;;;;;;;;11.33;6.67;;;;;17.57;66.94;101148.06;4979945;28;45735;-72
2022/10/28 06:06:18;;;;;;;;;13.00;7.33;;;;;17.71;67.07;101174.22;4978539;28;45443;-72
2022/10/28 06:08:44;;;;;;;;;7.33;5.67;;;;;17.36;67.15;101132.59;4979430;28;45516;-72
2022/10/28 06:11:09;;;;;;;;;6.67;6.67;;;;;17.28;66.85;101113.84;4979945;28;45267;-71
2022/10/28 06:13:35;;;;;;;;;10.67;8.33;;;;;17.71;67.15;101197.56;4994013;28;47338;-69
2022/10/28 06:16:03;;;;;;;;;5.33;5.33;;;;;17.71;66.88;101202.97;4978689;28;52855;-72
2022/10/28 06:18:28;;;;;;;;;7.67;7.67;;;;;17.17;66.96;101104.34;4979327;28;45358;-70
2022/10/28 06:20:56;;;;;;;;;8.00;8.00;;;;;17.66;67.24;101191.88;4979688;28;45456;-71
2022/10/28 06:23:22;;;;;;;;;8.33;7.33;;;;;17.58;67.17;101176.63;4979273;28;46720;-72
2022/10/28 06:25:48;;;;;;;;;8.33;8.00;;;;;17.64;67.17;101184.00;4979703;28;45330;-74
2022/10/28 06:28:13;;;;;;;;;9.00;6.67;;;;;17.62;66.97;101194.94;4978075;28;45501;-71
2022/10/28 06:30:39;;;;;;;;;6.33;6.00;;;;;17.68;66.79;101197.94;4980084;28;45421;-71
2022/10/28 06:33:04;;;;;;;;;6.67;5.00;;;;;17.67;66.75;101191.69;4995059;28;47501;-73
2022/10/28 06:35:29;;;;;;;;;8.67;7.67;;;;;17.28;66.89;101144.25;4979284;28;46476;-71
2022/10/28 06:37:56;;;;;;;;;9.67;7.67;;;;;17.60;66.65;101196.09;4994626;28;45659;-74
2022/10/28 06:40:22;;;;;;;;;10.33;9.33;;;;;17.66;66.49;101200.78;4979614;28;45463;-73
2022/10/28 06:42:47;;;;;;;;;16.67;12.00;;;;;17.49;66.36;101185.78;4978976;28;45322;-71
2022/10/28 06:45:13;;;;;;;;;8.33;7.00;;;;;17.66;66.67;101216.91;4979351;28;45226;-72
2022/10/28 06:47:38;;;;;;;;;8.33;6.00;;;;;17.48;66.32;101184.94;4979659;28;45560;-71
2022/10/28 06:50:04;;;;;;;;;5.33;4.67;;;;;16.71;66.55;101060.47;4978172;28;45252;-70
2022/10/28 06:52:29;;;;;;;;;13.33;9.00;;;;;17.35;66.43;101168.53;4979237;28;45667;-71
2022/10/28 06:54:55;;;;;;;;;7.00;6.67;;;;;17.68;66.51;101224.84;4978691;28;61647;-71
2022/10/28 06:57:20;;;;;;;;;11.00;9.33;;;;;17.11;66.56;101136.47;4980562;28;45811;-74
2022/10/28 06:59:45;;;;;;;;;10.33;8.00;;;;;17.69;65.94;101242.63;4981022;28;45395;-71
2022/10/28 07:02:11;;;;;;;;;11.67;10.00;;;;;17.63;66.15;101222.66;4979776;28;46349;-72
2022/10/28 07:04:37;;;;;;;;;7.33;6.00;;;;;17.36;65.84;101183.66;4979391;28;45321;-73
2022/10/28 07:07:02;;;;;;;;;10.67;9.33;;;;;17.79;65.91;101238.69;4980598;28;45407;-75
2022/10/28 07:09:27;;;;;;;;;6.67;6.33;;;;;17.67;65.61;101245.47;4980545;28;45429;-71
2022/10/28 07:11:53;;;;;;;;;14.33;7.67;;;;;17.76;65.72;101247.13;4980070;28;46365;-71
2022/10/28 07:14:18;;;;;;;;;9.00;6.67;;;;;17.79;65.42;101249.44;4979020;28;45312;-72
2022/10/28 07:16:43;;;;;;;;;11.67;7.00;;;;;17.73;65.59;101244.78;4978137;28;45733;-71
2022/10/28 07:19:09;;;;;;;;;9.67;7.67;;;;;17.83;65.06;101275.00;4978052;28;45233;-72
2022/10/28 07:21:35;;;;;;;;;10.33;7.00;;;;;17.84;65.17;101255.16;4980072;28;45539;-73
2022/10/28 07:24:00;;;;;;;;;8.67;8.67;;;;;17.92;65.04;101255.06;4978874;28;45324;-72
2022/10/28 07:26:26;;;;;;;;;10.67;7.67;;;;;17.75;64.70;101223.09;4978808;28;45382;-71
2022/10/28 07:28:53;;;;;;;;;14.00;12.00;;;;;18.00;64.55;101251.47;4979000;28;45437;-73
2022/10/28 07:31:18;;;;;;;;;9.67;8.67;;;;;18.04;63.84;101247.44;4977049;28;47872;-71
2022/10/28 07:33:44;;;;;;;;;10.33;8.67;;;;;18.10;63.81;101252.06;4979776;28;45421;-74
2022/10/28 07:36:10;;;;;;;;;11.67;8.67;;;;;18.29;63.52;101258.81;4981738;28;45587;-72
2022/10/28 07:38:36;;;;;;;;;7.67;7.67;;;;;17.71;62.78;101151.88;4980528;28;45273;-76
2022/10/28 07:41:06;;;;;;;;;11.67;9.00;;;;;18.52;62.85;101272.22;4980368;28;46486;-73
2022/10/28 07:43:35;;;;;;;;;9.33;6.67;;;;;18.79;61.96;101287.78;4979172;28;45754;-72
2022/10/28 07:46:00;;;;;;;;;5.67;5.00;;;;;18.99;61.76;101296.16;4978562;28;45306;-73
2022/10/28 07:48:25;;;;;;;;;6.33;6.00;;;;;19.15;60.69;101260.94;4978711;28;45282;-71
2022/10/28 07:50:51;;;;;;;;;10.67;7.00;;;;;19.07;59.37;101207.16;4978421;28;46633;-71
2022/10/28 07:53:16;;;;;;;;;12.00;8.67;;;;;19.15;58.85;101177.41;4978889;28;52510;-72
2022/10/28 07:55:41;;;;;;;;;9.00;7.00;;;;;20.21;57.50;101275.63;4976616;28;45457;-71
2022/10/28 07:58:06;;;;;;;;;7.33;6.00;;;;;20.43;56.91;101276.50;4978052;28;52287;-70
2022/10/28 08:00:32;;;;;;;;;15.33;9.33;;;;;20.63;56.38;101271.25;4977333;28;49531;-73
2022/10/28 08:02:57;;;;;;;;;7.33;5.67;;;;;21.12;55.15;101313.53;4978559;28;45516;-71
2022/10/28 08:05:23;;;;;;;;;11.33;7.67;;;;;21.13;54.90;101270.06;4977184;28;45357;-73
2022/10/28 08:07:48;;;;;;;;;11.33;9.33;;;;;21.34;54.64;101255.63;4977308;28;45545;-73
2022/10/28 08:10:14;;;;;;;;;9.67;9.67;;;;;22.26;52.96;101330.03;4978310;28;45674;-72
2022/10/28 08:12:39;;;;;;;;;7.33;7.00;;;;;22.20;51.83;101268.53;4995665;28;45379;-71
2022/10/28 08:15:05;;;;;;;;;13.00;10.00;;;;;22.00;51.17;101219.75;4980826;28;45436;-73
2022/10/28 08:17:30;;;;;;;;;10.67;9.33;;;;;22.72;51.18;101328.16;4979480;28;45310;-71
2022/10/28 08:19:56;;;;;;;;;11.67;9.33;;;;;22.59;50.88;101327.31;4993286;28;46229;-72
2022/10/28 08:22:22;;;;;;;;;16.33;15.00;;;;;21.76;50.71;101240.16;4976584;28;45304;-74
2022/10/28 08:24:47;;;;;;;;;9.67;7.00;;;;;21.50;51.05;101236.34;4977704;28;45464;-73
2022/10/28 08:27:12;;;;;;;;;11.33;10.00;;;;;21.74;51.92;101301.75;4978275;28;45152;-72
2022/10/28 08:29:38;;;;;;;;;10.00;8.67;;;;;21.28;52.05;101229.41;4978103;28;45203;-73
2022/10/28 08:32:06;;;;;;;;;10.33;7.00;;;;;21.80;52.00;101346.94;4978088;28;45519;-73
2022/10/28 08:34:31;;;;;;;;;7.00;5.00;;;;;21.80;52.31;101369.44;4992928;28;45506;-72
2022/10/28 08:36:56;;;;;;;;;8.00;8.00;;;;;20.66;52.28;101187.09;4977990;28;45435;-72
2022/10/28 08:39:22;;;;;;;;;10.00;6.67;;;;;21.32;52.60;101313.69;4978314;28;45985;-73
2022/10/28 08:41:57;;;;;;;;;7.67;7.00;;;;;21.40;52.60;101344.06;4977909;28;45386;-73
2022/10/28 08:44:47;;;;;;;;;10.33;10.33;;;;;21.42;52.93;101349.28;4977782;28;45307;-72
2022/10/28 08:47:34;;;;;;;;;10.33;8.33;;;;;21.54;52.73;101353.09;4977887;28;45343;-74
2022/10/28 08:50:21;;;;;;;;;10.33;8.33;;;;;21.78;51.71;101360.69;4979457;28;45497;-71
2022/10/28 08:52:57;;;;;;;;;11.33;8.67;;;;;21.93;51.59;101363.25;4978687;28;45416;-72
2022/10/28 08:55:47;;;;;;;;;6.75;6.00;;;;;22.06;50.72;101363.34;4977523;28;45397;-73
2022/10/28 08:58:24;;;;;;;;;14.00;8.00;;;;;22.29;50.83;101372.97;4975103;28;45261;-73
2022/10/28 09:00:55;;;;;;;;;10.33;7.67;;;;;22.36;50.12;101368.38;4977616;28;45388;-71
2022/10/28 09:03:37;;;;;;;;;7.67;6.67;;;;;22.21;50.57;101373.13;4977893;28;45265;-72
2022/10/28 09:06:05;;;;;;;;;9.00;6.33;;;;;22.15;50.73;101367.50;4977594;28;45434;-70
2022/10/28 09:08:35;;;;;;;;;11.00;7.67;;;;;22.06;49.82;101325.41;4977402;28;45263;-74
2022/10/28 09:11:15;;;;;;;;;7.67;6.67;;;;;22.76;49.36;101385.50;4975804;28;46202;-73
2022/10/28 09:13:49;;;;;;;;;15.00;11.00;;;;;22.75;49.29;101371.09;4980881;28;45313;-74
2022/10/28 09:16:57;;;;;;;;;6.67;5.33;;;;;22.88;49.25;101385.75;4980739;28;45599;-70
2022/10/28 09:19:43;;;;;;;;;12.00;8.67;;;;;22.94;49.21;101396.59;4978919;28;45248;-74
2022/10/28 09:22:38;;;;;;;;;6.00;6.00;;;;;22.90;49.41;101402.63;4980354;28;46267;-74
2022/10/28 09:25:14;;;;;;;;;6.33;6.33;;;;;22.97;49.80;101403.47;4980491;28;45386;-73
2022/10/28 09:28:02;;;;;;;;;8.33;7.33;;;;;23.03;49.44;101402.66;4978979;28;45508;-72
2022/10/28 09:30:44;;;;;;;;;7.67;6.67;;;;;23.05;49.89;101411.41;4980445;28;45442;-73
2022/10/28 09:33:34;;;;;;;;;8.00;8.00;;;;;23.03;49.44;101418.91;4980270;28;45715;-72
2022/10/28 09:36:02;;;;;;;;;8.33;6.67;;;;;22.42;49.32;101330.44;4980012;28;45433;-74
2022/10/28 09:38:32;;;;;;;;;8.33;8.00;;;;;22.90;49.66;101408.91;4980181;28;45318;-72
2022/10/28 09:41:09;;;;;;;;;13.67;8.67;;;;;22.96;49.74;101423.50;4980350;28;45429;-71
2022/10/28 09:43:42;;;;;;;;;9.00;8.00;;;;;22.56;49.71;101379.25;4980261;28;45284;-72
2022/10/28 09:46:12;;;;;;;;;11.33;8.00;;;;;22.19;49.72;101350.84;4981537;28;45317;-72
2022/10/28 09:48:44;;;;;;;;;9.33;8.00;;;;;22.37;50.12;101386.28;4983287;28;45212;-72
2022/10/28 09:51:43;;;;;;;;;10.00;10.00;;;;;22.43;50.47;101426.13;4981272;28;45607;-72
2022/10/28 09:54:11;;;;;;;;;7.00;6.50;;;;;22.19;50.70;101405.00;4980067;28;46132;-71
2022/10/28 09:56:38;;;;;;;;;7.67;7.33;;;;;22.14;51.05;101420.00;4981157;28;46070;-73
2022/10/28 09:59:04;;;;;;;;;8.00;6.00;;;;;22.06;51.33;101406.66;4980461;28;45310;-75
2022/10/28 10:01:36;;;;;;;;;11.33;9.67;;;;;20.56;51.69;101156.88;4980221;28;45291;-73
2022/10/28 10:04:15;;;;;;;;;7.67;7.33;;;;;21.96;51.86;101392.63;4979823;28;45477;-71
2022/10/28 10:06:41;;;;;;;;;11.33;7.33;;;;;19.86;51.89;101060.69;4980327;28;45247;-71
2022/10/28 10:09:19;;;;;;;;;9.67;7.00;;;;;22.10;52.04;101435.00;4980091;28;45247;-71
2022/10/28 10:11:47;;;;;;;;;14.67;11.67;;;;;21.44;52.01;101321.03;4980069;28;45332;-73
2022/10/28 10:14:18;;;;;;;;;7.00;6.33;;;;;22.07;51.94;101440.81;4979646;28;45427;-75
2022/10/28 10:16:53;;;;;;;;;8.00;7.67;;;;;22.19;51.58;101478.97;4994715;28;45556;-73
2022/10/28 10:19:18;;;;;;;;;8.00;8.00;;;;;21.55;51.88;101352.06;4980078;28;45243;-72
2022/10/28 10:21:46;;;;;;;;;11.67;10.00;;;;;21.83;52.25;101400.72;4980174;28;45625;-71
2022/10/28 10:24:22;;;;;;;;;9.00;7.33;;;;;22.24;51.99;101462.13;4977824;28;45683;-71
2022/10/28 10:26:48;;;;;;;;;13.00;10.67;;;;;21.78;51.94;101386.94;4980383;28;45428;-73
2022/10/28 10:29:13;;;;;;;;;7.67;7.67;;;;;22.14;52.15;101436.25;4980136;28;45266;-73
2022/10/28 10:31:39;;;;;;;;;10.00;8.33;;;;;21.80;52.45;101396.50;4979500;28;45629;-72
2022/10/28 10:34:06;;;;;;;;;12.67;11.00;;;;;21.99;52.58;101430.13;4979923;28;46479;-73
2022/10/28 10:36:33;;;;;;;;;7.33;6.67;;;;;22.01;52.87;101422.63;4978575;28;45341;-74
2022/10/28 10:39:01;;;;;;;;;10.33;9.33;;;;;22.14;52.85;101444.38;4979945;28;45562;-73
2022/10/28 10:41:40;;;;;;;;;7.00;6.00;;;;;22.13;52.95;101458.13;4980251;28;45396;-73
2022/10/28 10:44:21;;;;;;;;;10.00;8.00;;;;;22.08;53.09;101458.75;4979923;28;45610;-72
2022/10/28 10:47:06;;;;;;;;;10.00;10.00;;;;;22.13;53.70;101472.50;4979784;28;45516;-74
2022/10/28 10:49:33;;;;;;;;;10.33;7.67;;;;;21.65;53.68;101392.31;4979436;28;45388;-75
2022/10/28 10:52:02;;;;;;;;;11.33;10.67;;;;;21.40;53.17;101357.59;4979573;28;45393;-73
2022/10/28 10:54:30;;;;;;;;;9.00;8.67;;;;;21.82;53.73;101431.50;4979011;28;45883;-74
2022/10/28 10:57:07;;;;;;;;;10.33;9.00;;;;;22.12;53.54;101488.97;4978950;28;45525;-73
2022/10/28 10:59:36;;;;;;;;;9.33;7.33;;;;;21.49;53.99;101388.06;4977859;28;46468;-72
2022/10/28 11:02:03;;;;;;;;;2.00;1.00;;;;;22.12;53.69;101489.78;4980134;28;45377;-73
2022/10/28 11:04:29;;;;;;;;;12.67;11.67;;;;;21.54;54.08;101385.56;4994429;28;48140;-73
2022/10/28 11:06:56;;;;;;;;;10.33;8.00;;;;;21.25;53.42;101352.34;4979251;28;45647;-72
2022/10/28 11:09:28;;;;;;;;;13.67;11.67;;;;;22.17;53.79;101500.84;4979029;28;45395;-73
2022/10/28 11:11:54;;;;;;;;;14.33;11.33;;;;;22.19;54.07;101497.09;4982838;28;45275;-73
2022/10/28 11:14:24;;;;;;;;;11.33;8.00;;;;;22.23;54.06;101501.09;4980751;28;46903;-72
2022/10/28 11:16:55;;;;;;;;;9.67;7.33;;;;;22.10;54.04;101488.31;4981348;28;45219;-73
2022/10/28 11:19:22;;;;;;;;;10.33;8.67;;;;;21.82;54.11;101436.91;4995953;28;45527;-72
2022/10/28 11:22:09;;;;;;;;;15.00;10.67;;;;;22.21;54.25;101503.97;4980965;28;45508;-73
2022/10/28 11:25:09;;;;;;;;;10.00;9.67;;;;;22.25;54.33;101512.56;4980154;28;45531;-74
2022/10/28 11:28:00;;;;;;;;;11.33;8.00;;;;;22.15;54.62;101502.09;4978853;28;45457;-72
2022/10/28 11:30:44;;;;;;;;;10.67;8.33;;;;;21.83;54.72;101465.69;4979010;28;45235;-73
2022/10/28 11:33:16;;;;;;;;;9.25;8.00;;;;;22.18;54.40;101498.97;4979231;28;45564;-73
2022/10/28 11:36:05;;;;;;;;;11.33;9.00;;;;;22.30;54.64;101510.06;4977573;28;47176;-72